Terminal Aerodrome Forecast
Issued by NWS Memphis, TN

Home | Current Version | Previous Version | Text Only | Print | Product List | Glossary On
Versions: 1 2 3 4 5 6 7 8 9 10 11 12 13 14 15 16 17
952
FTUS44 KMEG 030531
TAFJBR
TAF
KJBR 030531Z 0306/0406 33006KT P6SM OVC050
     FM031500 36005KT P6SM SCT025
     FM031800 33007KT P6SM SCT035 OVC040
     FM040100 33004KT P6SM BKN250=

USA.gov is the U.S. government's official web portal to all federal, state and local government web resources and services.